createdAt,value
2019-02-10T00:00:39.280Z,8.90
2019-02-10T00:02:42.824Z,8.90
2019-02-10T00:04:46.316Z,8.90
2019-02-10T00:06:49.838Z,8.90
2019-02-10T00:08:53.412Z,8.90
2019-02-10T00:10:56.930Z,8.90
2019-02-10T00:13:05.910Z,8.80
2019-02-10T00:15:09.455Z,8.80
2019-02-10T00:17:12.933Z,8.80
2019-02-10T00:19:16.443Z,8.90
2019-02-10T00:21:19.971Z,8.90
2019-02-10T00:23:23.497Z,8.90
2019-02-10T00:25:27.041Z,8.90
2019-02-10T00:27:30.485Z,8.80
2019-02-10T00:29:33.956Z,8.90
2019-02-10T00:31:37.464Z,8.90
2019-02-10T00:33:41.034Z,8.80
2019-02-10T00:35:44.528Z,8.90
2019-02-10T00:37:48.568Z,8.80
2019-02-10T00:39:52.097Z,8.90
2019-02-10T00:41:55.613Z,8.90
2019-02-10T00:43:59.108Z,8.90
2019-02-10T00:46:02.642Z,8.90
2019-02-10T00:48:06.144Z,8.90
2019-02-10T00:50:09.776Z,8.90
2019-02-10T00:52:13.276Z,8.90
2019-02-10T00:54:16.823Z,8.90
2019-02-10T00:56:20.284Z,9.00
2019-02-10T00:58:23.770Z,9.00
2019-02-10T01:00:27.312Z,8.90
2019-02-10T01:02:30.865Z,9.00
2019-02-10T01:04:34.468Z,9.00
2019-02-10T01:06:41.567Z,9.00
2019-02-10T01:08:41.692Z,9.00
2019-02-10T01:10:45.332Z,9.00
2019-02-10T01:12:48.860Z,9.00
2019-02-10T01:14:52.418Z,9.00
2019-02-10T01:16:56.069Z,9.00
2019-02-10T01:19:03.583Z,9.00
2019-02-10T01:21:07.219Z,9.10
2019-02-10T01:23:10.683Z,9.10
2019-02-10T01:25:14.164Z,9.10
2019-02-10T01:27:17.793Z,9.10
2019-02-10T01:29:21.345Z,9.10
2019-02-10T01:31:24.888Z,9.10
2019-02-10T01:33:28.393Z,9.10
2019-02-10T01:35:32.013Z,9.10
2019-02-10T01:37:35.682Z,9.10
2019-02-10T01:39:39.289Z,9.10
2019-02-10T01:41:42.887Z,9.10
2019-02-10T01:43:46.420Z,9.10
2019-02-10T01:45:50.020Z,9.10
2019-02-10T01:47:53.606Z,9.10
2019-02-10T01:49:57.072Z,9.10
2019-02-10T01:52:00.668Z,9.10
2019-02-10T01:54:04.275Z,9.10
2019-02-10T01:56:07.766Z,9.10
2019-02-10T01:58:11.358Z,9.20
2019-02-10T02:00:15.411Z,9.20
2019-02-10T02:02:19.020Z,9.20
2019-02-10T02:04:22.571Z,9.20
2019-02-10T02:06:26.076Z,9.20
2019-02-10T02:08:29.505Z,9.20
2019-02-10T02:10:33.149Z,9.20
2019-02-10T02:12:36.646Z,9.20
2019-02-10T02:14:40.196Z,9.20
2019-02-10T02:16:43.749Z,9.10
2019-02-10T02:18:47.344Z,9.20
2019-02-10T02:20:50.876Z,9.20
2019-02-10T02:22:54.344Z,9.10
2019-02-10T02:24:57.914Z,9.10
2019-02-10T02:27:01.390Z,9.20
2019-02-10T02:29:04.908Z,9.10
2019-02-10T02:31:08.450Z,9.00
2019-02-10T02:33:11.968Z,9.10
2019-02-10T02:35:15.462Z,9.00
2019-02-10T02:37:18.960Z,9.10
2019-02-10T02:39:22.405Z,9.00
2019-02-10T02:41:25.844Z,9.00
2019-02-10T02:43:29.441Z,8.90
2019-02-10T02:45:32.907Z,9.00
2019-02-10T02:47:36.424Z,9.00
2019-02-10T02:49:40.014Z,8.90
2019-02-10T02:51:43.466Z,8.90
2019-02-10T02:53:46.919Z,9.00
2019-02-10T02:55:50.409Z,8.90
2019-02-10T02:57:53.863Z,8.90
2019-02-10T02:59:57.363Z,8.90
2019-02-10T03:02:00.961Z,8.90
2019-02-10T03:04:04.446Z,8.90
2019-02-10T03:06:07.975Z,8.90
2019-02-10T03:08:11.435Z,8.90
2019-02-10T03:10:15.038Z,8.90
2019-02-10T03:12:18.533Z,8.90
2019-02-10T03:14:22.050Z,8.90
2019-02-10T03:18:35.448Z,8.90
2019-02-10T03:20:38.953Z,8.90
2019-02-10T03:22:42.587Z,8.90
2019-02-10T03:24:46.077Z,9.00
2019-02-10T03:26:49.743Z,8.90
2019-02-10T03:28:53.238Z,8.90
2019-02-10T03:30:56.725Z,8.90
2019-02-10T03:33:00.242Z,8.80
2019-02-10T03:35:04.181Z,8.80
2019-02-10T03:37:07.805Z,8.80
2019-02-10T03:39:11.321Z,8.60
2019-02-10T03:41:14.909Z,8.60
2019-02-10T03:43:18.417Z,8.60
2019-02-10T03:45:21.935Z,8.60
2019-02-10T03:47:25.530Z,8.50
2019-02-10T03:49:29.041Z,8.50
2019-02-10T03:51:32.566Z,8.50
2019-02-10T03:53:36.132Z,8.50
2019-02-10T03:55:39.716Z,8.50
2019-02-10T03:57:43.229Z,8.50
2019-02-10T03:59:46.727Z,8.40
2019-02-10T04:01:50.206Z,8.40
2019-02-10T04:03:53.710Z,8.40
2019-02-10T04:05:57.204Z,8.40
2019-02-10T04:08:00.701Z,8.40
2019-02-10T04:10:04.288Z,8.20
2019-02-10T04:12:07.895Z,8.20
2019-02-10T04:14:11.425Z,8.20
2019-02-10T04:16:14.935Z,8.30
2019-02-10T04:18:18.484Z,8.20
2019-02-10T04:20:21.977Z,8.20
2019-02-10T04:22:25.495Z,8.20
2019-02-10T04:24:28.952Z,8.20
2019-02-10T04:26:32.463Z,8.10
2019-02-10T04:28:35.965Z,8.00
2019-02-10T04:30:39.459Z,8.00
2019-02-10T04:32:42.917Z,8.00
2019-02-10T04:34:46.416Z,8.00
2019-02-10T04:36:49.894Z,8.00
2019-02-10T04:38:53.333Z,7.90
2019-02-10T04:40:56.832Z,7.90
2019-02-10T04:43:00.245Z,7.90
2019-02-10T04:45:03.823Z,7.90
2019-02-10T04:47:07.360Z,7.90
2019-02-10T04:49:10.852Z,7.90
2019-02-10T04:51:14.284Z,7.90
2019-02-10T04:53:17.755Z,7.80
2019-02-10T04:55:21.295Z,7.80
2019-02-10T04:57:24.804Z,7.80
2019-02-10T04:59:28.263Z,7.80
2019-02-10T05:01:31.676Z,7.80
2019-02-10T05:03:35.222Z,7.80
2019-02-10T05:05:38.662Z,7.80
2019-02-10T05:07:42.145Z,7.80
2019-02-10T05:09:45.845Z,7.90
2019-02-10T05:11:49.259Z,7.90
2019-02-10T05:13:52.756Z,7.80
2019-02-10T05:15:56.341Z,7.80
2019-02-10T05:17:59.798Z,7.80
2019-02-10T05:20:03.362Z,7.80
2019-02-10T05:22:07.105Z,7.70
2019-02-10T05:24:10.538Z,7.80
2019-02-10T05:26:13.968Z,7.80
2019-02-10T05:28:17.464Z,7.80
2019-02-10T05:30:21.018Z,7.80
2019-02-10T05:32:24.484Z,7.80
2019-02-10T05:34:27.981Z,7.80
2019-02-10T05:36:31.447Z,7.80
2019-02-10T05:38:34.925Z,7.90
2019-02-10T05:40:38.483Z,7.90
2019-02-10T05:42:41.921Z,7.90
2019-02-10T05:44:45.384Z,7.90
2019-02-10T05:46:48.943Z,7.90
2019-02-10T05:48:52.373Z,8.00
2019-02-10T05:50:55.897Z,7.90
2019-02-10T05:52:59.429Z,7.90
2019-02-10T05:55:02.927Z,8.00
2019-02-10T05:57:06.380Z,8.00
2019-02-10T05:59:09.884Z,8.00
2019-02-10T06:01:18.887Z,8.00
2019-02-10T06:03:22.405Z,8.00
2019-02-10T06:05:26.910Z,8.00
2019-02-10T06:07:30.428Z,8.00
2019-02-10T06:09:33.931Z,8.10
2019-02-10T06:11:37.408Z,8.10
2019-02-10T06:13:41.095Z,8.10
2019-02-10T06:15:44.704Z,8.10
2019-02-10T06:17:48.242Z,8.20
2019-02-10T06:19:51.748Z,8.20
2019-02-10T06:21:55.321Z,8.20
2019-02-10T06:23:58.893Z,8.20
2019-02-10T06:26:02.400Z,8.20
2019-02-10T06:28:05.880Z,8.30
2019-02-10T06:30:09.804Z,8.30
2019-02-10T06:32:13.265Z,8.30
2019-02-10T06:34:16.848Z,8.30
2019-02-10T06:36:20.369Z,8.30
2019-02-10T06:38:23.898Z,8.40
2019-02-10T06:40:27.428Z,8.40
2019-02-10T06:42:30.867Z,8.40
2019-02-10T06:44:34.368Z,8.40
2019-02-10T06:46:37.965Z,8.50
2019-02-10T06:48:41.503Z,8.40
2019-02-10T06:50:44.998Z,8.50
2019-02-10T06:52:48.509Z,8.50
2019-02-10T06:54:53.907Z,8.50
2019-02-10T06:56:57.422Z,8.60
2019-02-10T06:59:00.903Z,8.50
2019-02-10T07:01:25.890Z,8.50
2019-02-10T07:04:06.156Z,8.60
2019-02-10T07:06:10.140Z,8.60
2019-02-10T07:08:13.580Z,8.60
2019-02-10T07:10:17.028Z,8.60
2019-02-10T07:12:26.064Z,8.60
2019-02-10T07:14:30.616Z,8.60
2019-02-10T07:16:36.634Z,8.70
2019-02-10T07:18:45.472Z,8.70
2019-02-10T07:20:49.004Z,8.70
2019-02-10T07:22:56.124Z,8.70
2019-02-10T07:25:04.061Z,8.70
2019-02-10T07:27:23.632Z,8.70
2019-02-10T07:29:34.875Z,8.80
2019-02-10T07:31:46.597Z,8.80
2019-02-10T07:34:09.369Z,8.80
2019-02-10T07:36:23.382Z,8.80
2019-02-10T07:38:38.675Z,8.80
2019-02-10T07:40:48.168Z,8.90
2019-02-10T07:42:58.842Z,8.90
2019-02-10T07:45:11.845Z,8.90
2019-02-10T07:48:21.460Z,8.90
2019-02-10T07:50:35.744Z,8.90
2019-02-10T07:52:56.668Z,8.90
2019-02-10T07:55:05.792Z,8.90
2019-02-10T07:57:14.920Z,8.90
2019-02-10T07:59:26.690Z,9.00
2019-02-10T08:01:41.772Z,9.00
2019-02-10T08:04:20.728Z,9.00
2019-02-10T08:06:30.997Z,9.00
2019-02-10T08:08:46.308Z,9.00
2019-02-10T08:10:53.063Z,9.10
2019-02-10T08:13:00.034Z,9.10
2019-02-10T08:15:09.862Z,9.10
2019-02-10T08:17:18.208Z,9.10
2019-02-10T08:19:33.033Z,9.10
2019-02-10T08:22:11.914Z,9.20
2019-02-10T08:24:36.094Z,9.20
2019-02-10T08:26:49.319Z,9.30
2019-02-10T08:28:57.005Z,9.20
2019-02-10T08:31:13.159Z,9.30
2019-02-10T08:33:18.780Z,9.40
2019-02-10T08:35:27.398Z,9.40
2019-02-10T08:38:06.860Z,9.40
2019-02-10T08:40:22.874Z,9.40
2019-02-10T08:42:50.162Z,9.50
2019-02-10T08:44:58.198Z,9.50
2019-02-10T08:47:12.808Z,9.60
2019-02-10T08:49:19.971Z,9.60
2019-02-10T08:51:57.281Z,9.70
2019-02-10T08:54:00.739Z,9.70
2019-02-10T08:56:04.210Z,9.70
2019-02-10T08:58:07.655Z,9.70
2019-02-10T09:00:11.213Z,9.80
2019-02-10T09:02:14.736Z,9.80
2019-02-10T09:04:18.210Z,9.90
2019-02-10T09:06:21.676Z,9.90
2019-02-10T09:08:25.180Z,9.90
2019-02-10T09:10:28.683Z,10.00
2019-02-10T09:12:32.097Z,10.00
2019-02-10T09:14:35.511Z,10.10
2019-02-10T09:16:39.049Z,10.10
2019-02-10T09:18:42.516Z,10.10
2019-02-10T09:20:46.009Z,10.20
2019-02-10T09:22:49.537Z,10.20
2019-02-10T09:24:53.002Z,10.20
2019-02-10T09:26:58.273Z,10.20
2019-02-10T09:29:01.768Z,10.20
2019-02-10T09:31:05.220Z,10.20
2019-02-10T09:33:08.669Z,10.20
2019-02-10T09:35:12.264Z,10.30
2019-02-10T09:37:15.673Z,10.30
2019-02-10T09:39:19.110Z,10.30
2019-02-10T09:41:23.517Z,10.30
2019-02-10T09:43:27.030Z,10.40
2019-02-10T09:45:30.490Z,10.40
2019-02-10T09:47:33.944Z,10.40
2019-02-10T09:49:37.400Z,10.50
2019-02-10T09:51:40.913Z,10.50
2019-02-10T09:53:51.083Z,10.50
2019-02-10T09:55:54.545Z,10.60
2019-02-10T09:57:58.011Z,10.60
2019-02-10T10:00:01.476Z,10.50
2019-02-10T10:02:04.997Z,10.60
2019-02-10T10:04:08.521Z,10.50
2019-02-10T10:06:12.418Z,10.50
2019-02-10T10:08:16.644Z,10.50
2019-02-10T10:10:20.130Z,10.40
2019-02-10T10:12:24.933Z,10.40
2019-02-10T10:14:30.941Z,10.30
2019-02-10T10:16:34.263Z,10.30
2019-02-10T10:18:37.765Z,10.30
2019-02-10T10:20:41.212Z,10.30
2019-02-10T10:22:44.715Z,10.30
2019-02-10T10:24:50.461Z,10.30
2019-02-10T10:26:51.811Z,10.20
2019-02-10T10:28:55.351Z,10.20
2019-02-10T10:31:03.202Z,10.20
2019-02-10T10:33:06.821Z,10.20
2019-02-10T10:35:10.268Z,10.10
2019-02-10T10:37:13.729Z,10.10
2019-02-10T10:39:17.175Z,10.10
2019-02-10T10:41:20.618Z,10.00
2019-02-10T10:43:24.087Z,10.00
2019-02-10T10:45:27.542Z,10.00
2019-02-10T10:47:30.990Z,9.90
2019-02-10T10:49:34.458Z,9.90
2019-02-10T10:51:39.324Z,9.90
2019-02-10T10:53:41.559Z,9.90
2019-02-10T10:55:45.009Z,9.80
2019-02-10T10:57:48.445Z,9.80
2019-02-10T10:59:51.920Z,9.80
2019-02-10T11:01:55.337Z,9.80
2019-02-10T11:03:58.783Z,9.80
2019-02-10T11:06:02.317Z,9.80
2019-02-10T11:08:05.858Z,9.80
2019-02-10T11:10:09.404Z,9.80
2019-02-10T11:12:13.340Z,9.80
2019-02-10T11:14:20.819Z,9.80
2019-02-10T11:16:24.698Z,9.80
2019-02-10T11:18:28.292Z,9.80
2019-02-10T11:20:31.836Z,9.80
2019-02-10T11:22:35.273Z,9.80
2019-02-10T11:24:38.748Z,9.80
2019-02-10T11:26:42.177Z,9.80
2019-02-10T11:28:45.608Z,9.90
2019-02-10T11:30:49.025Z,9.90
2019-02-10T11:32:52.471Z,9.90
2019-02-10T11:34:55.905Z,9.90
2019-02-10T11:36:59.361Z,9.90
2019-02-10T11:39:06.004Z,10.00
2019-02-10T11:41:09.467Z,9.90
2019-02-10T11:43:12.961Z,9.90
2019-02-10T11:45:16.427Z,9.90
2019-02-10T11:47:19.920Z,9.90
2019-02-10T11:49:23.442Z,9.90
2019-02-10T11:51:26.928Z,9.90
2019-02-10T11:53:30.384Z,9.90
2019-02-10T11:55:33.798Z,10.00
2019-02-10T11:57:37.241Z,9.90
2019-02-10T11:59:40.667Z,9.90
2019-02-10T12:01:44.528Z,10.00
2019-02-10T12:03:47.984Z,10.00
2019-02-10T12:05:51.549Z,10.00
2019-02-10T12:07:55.712Z,10.00
2019-02-10T12:09:59.333Z,10.10
2019-02-10T12:12:02.863Z,10.10
2019-02-10T12:14:06.488Z,10.20
2019-02-10T12:16:09.916Z,10.20
2019-02-10T12:18:13.390Z,10.20
2019-02-10T12:20:16.870Z,10.20
2019-02-10T12:22:20.369Z,10.20
2019-02-10T12:24:23.854Z,10.20
2019-02-10T12:26:27.376Z,10.20
2019-02-10T12:28:30.844Z,10.20
2019-02-10T12:30:34.345Z,10.20
2019-02-10T12:32:37.862Z,10.20
2019-02-10T12:34:41.325Z,10.20
2019-02-10T12:36:44.792Z,10.20
2019-02-10T12:38:48.422Z,10.20
2019-02-10T12:40:51.895Z,10.30
2019-02-10T12:42:55.366Z,10.30
2019-02-10T12:44:58.862Z,10.30
2019-02-10T12:47:02.312Z,10.30
2019-02-10T12:49:05.854Z,10.20
2019-02-10T12:51:09.397Z,10.20
2019-02-10T12:53:12.992Z,10.20
2019-02-10T12:55:16.516Z,10.20
2019-02-10T12:57:20.017Z,10.20
2019-02-10T12:59:23.574Z,10.10
2019-02-10T13:01:27.080Z,10.10
2019-02-10T13:03:30.665Z,10.10
2019-02-10T13:05:34.185Z,10.10
2019-02-10T13:07:37.620Z,10.00
2019-02-10T13:09:41.068Z,10.00
2019-02-10T13:11:44.567Z,9.90
2019-02-10T13:13:48.025Z,9.80
2019-02-10T13:15:51.517Z,9.80
2019-02-10T13:17:54.951Z,9.80
2019-02-10T13:19:58.502Z,9.70
2019-02-10T13:22:01.916Z,9.70
2019-02-10T13:24:05.379Z,9.60
2019-02-10T13:26:08.852Z,9.60
2019-02-10T13:28:12.267Z,9.60
2019-02-10T13:30:15.817Z,9.60
2019-02-10T13:32:19.253Z,9.40
2019-02-10T13:34:22.754Z,9.30
2019-02-10T13:36:26.255Z,9.30
2019-02-10T13:38:29.716Z,9.30
2019-02-10T13:40:33.188Z,9.30
2019-02-10T13:42:36.621Z,9.20
2019-02-10T13:44:40.100Z,9.20
2019-02-10T13:46:43.552Z,9.20
2019-02-10T13:48:47.076Z,9.30
2019-02-10T13:50:50.553Z,9.30
2019-02-10T13:52:54.160Z,9.20
2019-02-10T13:54:57.613Z,9.30
2019-02-10T13:57:01.012Z,9.30
2019-02-10T13:59:04.438Z,9.30
2019-02-10T14:01:08.025Z,9.30
2019-02-10T14:03:11.496Z,9.30
2019-02-10T14:05:14.953Z,9.40
2019-02-10T14:07:18.951Z,9.40
2019-02-10T14:09:22.371Z,9.50
2019-02-10T14:11:25.914Z,9.60
2019-02-10T14:13:29.416Z,9.50
2019-02-10T14:15:32.956Z,9.60
2019-02-10T14:17:36.622Z,9.60
2019-02-10T14:19:40.132Z,9.60
2019-02-10T14:21:43.603Z,9.60
2019-02-10T14:23:47.176Z,9.60
2019-02-10T14:25:50.630Z,9.60
2019-02-10T14:27:54.128Z,9.60
2019-02-10T14:29:57.608Z,9.60
2019-02-10T14:32:01.072Z,9.60
2019-02-10T14:34:04.537Z,9.50
2019-02-10T14:36:08.001Z,9.50
2019-02-10T14:38:11.473Z,9.50
2019-02-10T14:40:14.945Z,9.50
2019-02-10T14:42:18.487Z,9.40
2019-02-10T14:44:21.945Z,9.30
2019-02-10T14:46:25.414Z,9.30
2019-02-10T14:48:28.893Z,9.30
2019-02-10T14:50:32.456Z,9.30
2019-02-10T14:52:36.165Z,9.30
2019-02-10T14:54:40.443Z,9.20
2019-02-10T14:56:43.893Z,9.20
2019-02-10T14:58:47.370Z,9.20
2019-02-10T15:00:51.169Z,9.20
2019-02-10T15:02:54.664Z,9.20
2019-02-10T15:04:58.093Z,9.20
2019-02-10T15:07:01.696Z,9.20
2019-02-10T15:09:05.492Z,9.10
2019-02-10T15:11:09.000Z,9.20
2019-02-10T15:13:12.476Z,9.20
2019-02-10T15:15:16.058Z,9.20
2019-02-10T15:17:19.438Z,9.20
2019-02-10T15:19:22.936Z,9.30
2019-02-10T15:21:26.504Z,9.30
2019-02-10T15:23:29.919Z,9.30
2019-02-10T15:25:33.397Z,9.20
2019-02-10T15:27:36.934Z,9.30
2019-02-10T15:29:40.408Z,9.30
2019-02-10T15:31:43.805Z,9.40
2019-02-10T15:33:47.313Z,9.30
2019-02-10T15:35:50.756Z,9.30
2019-02-10T15:37:54.195Z,9.30
2019-02-10T15:39:57.684Z,9.30
2019-02-10T15:42:09.099Z,9.20
2019-02-10T15:44:04.585Z,9.30
2019-02-10T15:46:08.089Z,9.30
2019-02-10T15:48:11.560Z,9.20
2019-02-10T15:50:15.004Z,9.00
2019-02-10T15:52:18.565Z,8.90
2019-02-10T15:54:22.064Z,8.90
2019-02-10T15:56:25.643Z,8.80
2019-02-10T15:58:29.112Z,8.70
2019-02-10T16:00:32.617Z,8.50
2019-02-10T16:02:36.651Z,8.40
2019-02-10T16:04:39.627Z,8.40
2019-02-10T16:06:43.221Z,8.30
2019-02-10T16:08:46.641Z,8.20
2019-02-10T16:10:57.764Z,8.20
2019-02-10T16:12:53.552Z,8.20
2019-02-10T16:14:56.998Z,8.10
2019-02-10T16:17:00.424Z,8.10
2019-02-10T16:19:03.896Z,8.10
2019-02-10T16:21:07.308Z,8.10
2019-02-10T16:23:10.719Z,8.00
2019-02-10T16:25:14.181Z,8.00
2019-02-10T16:27:17.626Z,8.00
2019-02-10T16:29:21.225Z,8.00
2019-02-10T16:31:25.561Z,8.00
2019-02-10T16:33:29.053Z,7.90
2019-02-10T16:35:32.498Z,7.90
2019-02-10T16:37:36.071Z,7.90
2019-02-10T16:39:40.238Z,7.90
2019-02-10T16:41:43.764Z,7.80
2019-02-10T16:43:47.178Z,7.80
2019-02-10T16:45:50.690Z,7.80
2019-02-10T16:47:54.093Z,7.80
2019-02-10T16:49:57.524Z,7.80
2019-02-10T16:52:01.074Z,7.80
2019-02-10T16:54:05.232Z,7.90
2019-02-10T16:56:08.708Z,7.80
2019-02-10T16:58:12.168Z,7.90
2019-02-10T17:00:15.693Z,7.90
2019-02-10T17:02:19.114Z,7.90
2019-02-10T17:04:22.656Z,7.90
2019-02-10T17:06:26.205Z,7.80
2019-02-10T17:08:29.617Z,7.80
2019-02-10T17:10:33.133Z,7.80
2019-02-10T17:12:36.587Z,7.80
2019-02-10T17:14:40.116Z,7.80
2019-02-10T17:16:43.576Z,7.80
2019-02-10T17:18:47.102Z,7.80
2019-02-10T17:20:50.802Z,7.80
2019-02-10T17:22:54.267Z,7.80
2019-02-10T17:24:57.755Z,7.70
2019-02-10T17:27:01.165Z,7.80
2019-02-10T17:29:04.569Z,7.70
2019-02-10T17:31:08.089Z,7.70
2019-02-10T17:33:11.560Z,7.70
2019-02-10T17:35:15.041Z,7.60
2019-02-10T17:37:18.989Z,7.60
2019-02-10T17:39:23.204Z,7.60
2019-02-10T17:41:28.823Z,7.50
2019-02-10T17:43:32.294Z,7.40
2019-02-10T17:45:35.785Z,7.30
2019-02-10T17:47:39.221Z,7.30
2019-02-10T17:49:42.693Z,7.20
2019-02-10T17:51:46.136Z,7.10
2019-02-10T17:53:49.641Z,7.10
2019-02-10T17:55:53.100Z,7.00
2019-02-10T17:57:57.126Z,7.00
2019-02-10T18:00:00.561Z,7.00
2019-02-10T18:02:04.136Z,6.90
2019-02-10T18:04:07.814Z,6.80
2019-02-10T18:06:11.543Z,6.80
2019-02-10T18:08:14.953Z,6.80
2019-02-10T18:10:18.610Z,6.80
2019-02-10T18:12:22.077Z,6.70
2019-02-10T18:14:32.682Z,6.60
2019-02-10T18:16:46.427Z,6.60
2019-02-10T18:18:55.105Z,6.50
2019-02-10T18:21:07.813Z,6.40
2019-02-10T18:25:18.618Z,6.40
2019-02-10T18:27:59.567Z,6.30
2019-02-10T18:30:08.256Z,6.20
2019-02-10T18:32:25.949Z,6.00
2019-02-10T18:36:37.641Z,6.00
2019-02-10T18:38:46.494Z,5.80
2019-02-10T18:41:09.322Z,5.70
2019-02-10T18:43:22.032Z,5.60
2019-02-10T18:45:32.685Z,5.50
2019-02-10T18:49:49.294Z,5.40
2019-02-10T18:53:00.558Z,5.30
2019-02-10T18:55:12.181Z,5.10
2019-02-10T18:57:23.966Z,5.00
2019-02-10T18:59:33.582Z,4.90
2019-02-10T19:01:56.381Z,4.90
2019-02-10T19:05:06.465Z,4.80
2019-02-10T19:07:26.477Z,4.80
2019-02-10T19:09:41.167Z,4.70
2019-02-10T19:12:01.179Z,4.60
2019-02-10T19:14:14.069Z,4.60
2019-02-10T19:16:34.802Z,4.50
2019-02-10T19:19:20.339Z,4.50
2019-02-10T19:21:36.814Z,4.50
2019-02-10T19:24:24.994Z,4.50
2019-02-10T19:26:38.671Z,4.50
2019-02-10T19:30:53.352Z,4.50
